Naches, WA

11:22 PM PDT on September 04, 2015 (GMT -0700)
APRSWXNET | | Change Station
CLOSE
Current Station
Personal Weather Station
Location: Packwood, WA
Elevation: 1290 ft
Nearby Weather Stations

Elev 1290 ft 46.61 °N, 121.66 °W | Updated 45 minutes ago

Partly Cloudy
Partly Cloudy
51 °F
Feels Like 51 °F
N
0
Wind Variable Wind from North
Gusts 0.0 mph

Today
High -- | Low -- °F
--% Chance of Precip.
Yesterday
High -- | Low -- °F
Precip. -- in
6:29 AM 7:39 PM
Waning Gibbous, 52% visible
Pressure 30.01 in
Visibility 10.0 miles
Clouds Few 2400 ft
Few 2800 ft
Scattered Clouds 4800 ft
Dew Point 50 °F
Humidity 97%
Rainfall in
Snow Depth Not available.
UV 0 out of 12
Pollen 3.90 out of 12
Air Quality Not available.
Flu Activity Not available.
METAR KPLU 050615Z AUTO 00000KT 10SM FEW024 FEW028 SCT048 10/10 A3001 RMK AO2
Pressure 30.01 in
Visibility 10.0 miles
Clouds Few 2400 ft
Few 2800 ft
Scattered Clouds 4800 ft
Dew Point 50 °F
Humidity 97%
Rainfall in
Snow Depth Not available.
UV 0 out of 12
Pollen 3.90 out of 12
Air Quality Not available.
Flu Activity Not available.
METAR KPLU 050615Z AUTO 00000KT 10SM FEW024 FEW028 SCT048 10/10 A3001 RMK AO2

10-Day Weather Forecast

×

Almanac

Astronomy

Sep. 04, 2015 Rise Set
Actual Time
Civil Twilight
Nautical Twilight
Astronomical Twilight
Moon
Length of Visible Light
Length of Day
Tomorrow will be .
, % of the Moon is Illuminated

Today's Extremes

State Highs State Lows

Community

WunderPhotos

Upload Photos

1,852,430 photos uploaded!

WunderBlogs® & News

Nearby

Air Quality

  Air Quality AQ Index Pollutant
Not available.

Snow Depth

Station Depth Elevation

Earthquake Activity

City Distance Mag. Time & Date
Minimum magnitude displayed is 2.5.

Coastal Water Temperatures

Place Temperature

Stations

Nearby Weather Stations

Station Location Temp. Windchill Dew Point Humidity Wind Precip. Elev Updated Type